Time;durP1;ratioP1;P1;durP2;ratioP2;P2;SDS_P1;SDS_P2;PMS_P1;PMS_P2;Temp;Humidity;BMP_temperature;BMP_pressure;BME280_temperature;BME280_humidity;BME280_pressure;Samples;Min_cycle;Max_cycle;Signal;HPM_P1;HPM_P2
2023/03/15 00:01:45;;;;;;;4.93;1.33;;;18.50;47.00;;;;;;6194934;23;20607;-86
2023/03/15 00:04:12;;;;;;;2.28;1.38;;;18.40;47.00;;;;;;6220348;23;20576;-86
2023/03/15 00:06:38;;;;;;;1.70;1.17;;;18.50;47.10;;;;;;6170756;23;20152;-86
2023/03/15 00:09:03;;;;;;;3.78;1.30;;;18.40;47.40;;;;;;6220331;23;20134;-85
2023/03/15 00:11:30;;;;;;;2.30;1.20;;;18.40;47.30;;;;;;6195216;23;20149;-86
2023/03/15 00:13:57;;;;;;;2.70;1.20;;;18.40;47.30;;;;;;6170018;23;20207;-85
2023/03/15 00:16:25;;;;;;;5.13;1.15;;;18.40;47.20;;;;;;6195170;23;20268;-85
2023/03/15 00:18:52;;;;;;;4.10;1.25;;;18.40;47.40;;;;;;6171866;23;20230;-86
2023/03/15 00:21:18;;;;;;;2.53;1.35;;;18.40;47.30;;;;;;6170301;23;20177;-85
2023/03/15 00:23:44;;;;;;;2.80;1.27;;;18.40;47.40;;;;;;6169992;23;20638;-86
2023/03/15 00:26:09;;;;;;;4.13;1.17;;;18.40;47.40;;;;;;6219876;23;20161;-86
2023/03/15 00:28:35;;;;;;;2.17;1.00;;;18.40;47.40;;;;;;6194792;23;20129;-86
2023/03/15 00:31:06;;;;;;;2.55;1.13;;;18.40;47.50;;;;;;6195150;23;20457;-86
2023/03/15 00:33:33;;;;;;;3.33;1.17;;;18.30;47.50;;;;;;6170830;23;20195;-85
2023/03/15 00:36:01;;;;;;;2.35;1.13;;;18.30;47.40;;;;;;6246753;23;20130;-85
2023/03/15 00:38:27;;;;;;;3.10;1.23;;;18.30;47.40;;;;;;6195208;23;20577;-86
2023/03/15 00:40:52;;;;;;;3.20;1.30;;;18.30;47.40;;;;;;6189153;23;20194;-85
2023/03/15 00:43:18;;;;;;;2.30;1.33;;;18.30;47.40;;;;;;6189333;23;20239;-86
2023/03/15 00:45:44;;;;;;;2.38;1.08;;;18.30;47.40;;;;;;6189709;23;20142;-86
2023/03/15 00:48:09;;;;;;;2.88;1.45;;;18.30;47.40;;;;;;6189963;23;20460;-86
2023/03/15 00:50:35;;;;;;;2.58;1.02;;;18.30;47.40;;;;;;6189688;23;20577;-85
2023/03/15 00:53:01;;;;;;;2.15;1.02;;;18.30;47.40;;;;;;6189521;23;20131;-85
2023/03/15 00:55:28;;;;;;;2.63;0.90;;;18.30;47.40;;;;;;6165778;23;20157;-85
2023/03/15 00:57:53;;;;;;;1.38;0.90;;;18.30;47.40;;;;;;6189726;23;20165;-85
2023/03/15 01:00:23;;;;;;;2.35;1.40;;;18.30;47.50;;;;;;6189808;23;20153;-85
2023/03/15 01:02:51;;;;;;;2.70;0.93;;;18.30;47.40;;;;;;6189774;23;20161;-85
2023/03/15 01:05:17;;;;;;;1.83;1.17;;;18.30;47.40;;;;;;6190340;23;20150;-86
2023/03/15 01:07:44;;;;;;;2.10;1.10;;;18.30;47.30;;;;;;6189649;23;20166;-86
2023/03/15 01:10:10;;;;;;;2.22;1.00;;;18.30;47.40;;;;;;6215087;23;20137;-86
2023/03/15 01:12:36;;;;;;;3.67;1.40;;;18.30;47.40;;;;;;6216169;23;20193;-85
2023/03/15 01:15:03;;;;;;;5.57;1.30;;;18.30;47.30;;;;;;6167179;23;20158;-86
2023/03/15 01:17:29;;;;;;;1.48;1.02;;;18.30;47.40;;;;;;6192373;23;20154;-86
2023/03/15 01:19:57;;;;;;;3.10;1.10;;;18.30;47.40;;;;;;6166563;23;20229;-86
2023/03/15 01:22:23;;;;;;;1.88;1.00;;;18.30;47.40;;;;;;6191739;23;20181;-86
2023/03/15 01:24:49;;;;;;;1.95;1.05;;;18.30;47.30;;;;;;6191805;23;20472;-85
2023/03/15 01:27:15;;;;;;;1.42;1.00;;;18.40;47.40;;;;;;6217967;23;20142;-86
2023/03/15 01:29:40;;;;;;;1.48;0.93;;;18.30;47.30;;;;;;6191569;23;20213;-86
2023/03/15 01:32:06;;;;;;;3.15;1.17;;;18.30;47.30;;;;;;6191457;23;20146;-85
2023/03/15 01:34:32;;;;;;;2.50;1.00;;;18.30;47.50;;;;;;6191157;23;20131;-86
2023/03/15 01:36:58;;;;;;;3.30;1.15;;;18.30;47.50;;;;;;6190977;23;20138;-85
2023/03/15 01:39:23;;;;;;;2.53;1.20;;;18.30;47.40;;;;;;6191244;23;20236;-86
2023/03/15 01:41:49;;;;;;;1.63;1.08;;;18.30;47.40;;;;;;6220741;23;20189;-86
2023/03/15 01:44:16;;;;;;;2.28;0.77;;;18.30;47.40;;;;;;6171727;23;20152;-86
2023/03/15 01:46:41;;;;;;;1.83;0.95;;;18.30;47.40;;;;;;6171059;23;20163;-86
2023/03/15 01:49:21;;;;;;;2.22;0.95;;;18.30;47.30;;;;;;6171611;23;20152;-85
2023/03/15 01:51:51;;;;;;;4.28;1.30;;;18.30;47.50;;;;;;6224036;23;20130;-86
2023/03/15 01:54:29;;;;;;;1.30;0.90;;;18.30;47.50;;;;;;6171738;23;20187;-86
2023/03/15 01:57:10;;;;;;;1.48;1.10;;;18.30;47.40;;;;;;6199433;23;20458;-86
2023/03/15 01:59:39;;;;;;;1.98;1.02;;;18.30;47.40;;;;;;6221343;23;20228;-85
2023/03/15 02:02:05;;;;;;;2.90;1.17;;;18.30;47.40;;;;;;6171783;23;20176;-86
2023/03/15 02:04:39;;;;;;;1.48;1.00;;;18.30;47.50;;;;;;6195655;23;20126;-86
2023/03/15 02:07:05;;;;;;;2.53;1.10;;;18.30;47.60;;;;;;6196562;23;20134;-86
2023/03/15 02:09:37;;;;;;;1.50;1.10;;;18.30;47.50;;;;;;6170845;23;20596;-86
2023/03/15 02:12:03;;;;;;;2.95;1.02;;;18.20;47.60;;;;;;6221116;23;20137;-86
2023/03/15 02:14:31;;;;;;;2.95;1.20;;;18.20;47.60;;;;;;6170994;23;20152;-86
2023/03/15 02:16:56;;;;;;;1.88;1.10;;;18.20;47.70;;;;;;6196132;23;20177;-86
2023/03/15 02:19:30;;;;;;;1.75;1.15;;;18.20;47.50;;;;;;6247333;23;20133;-86
2023/03/15 02:22:03;;;;;;;1.58;1.17;;;18.30;47.70;;;;;;6196229;23;20255;-86
2023/03/15 02:24:42;;;;;;;1.38;1.00;;;18.30;47.50;;;;;;6171849;23;20145;-86
2023/03/15 02:27:08;;;;;;;3.80;1.10;;;18.10;47.70;;;;;;6172955;23;20145;-86
2023/03/15 02:29:33;;;;;;;3.80;1.38;;;18.20;47.70;;;;;;6220851;23;20134;-86
2023/03/15 02:31:59;;;;;;;1.45;1.17;;;18.20;47.70;;;;;;6220499;23;20134;-85
2023/03/15 02:34:25;;;;;;;2.45;1.00;;;18.20;47.80;;;;;;6170466;23;20149;-85
2023/03/15 02:36:51;;;;;;;1.33;0.90;;;18.30;47.80;;;;;;6171391;23;20251;-85
2023/03/15 02:39:18;;;;;;;2.67;1.10;;;18.20;47.70;;;;;;6195732;23;20213;-86
2023/03/15 02:41:48;;;;;;;1.65;1.10;;;18.20;47.70;;;;;;6220113;23;20201;-86
2023/03/15 02:44:18;;;;;;;1.40;0.90;;;18.30;47.90;;;;;;6195930;23;20221;-86
2023/03/15 02:46:45;;;;;;;2.75;1.10;;;18.20;47.80;;;;;;6196145;23;20153;-86
2023/03/15 02:49:11;;;;;;;1.48;1.00;;;18.20;47.80;;;;;;6220821;23;20550;-85
2023/03/15 02:51:36;;;;;;;2.00;0.88;;;18.20;47.80;;;;;;6170943;23;20153;-86
2023/03/15 02:54:03;;;;;;;1.92;1.00;;;18.20;47.80;;;;;;6170734;23;20141;-86
2023/03/15 02:56:28;;;;;;;1.30;1.00;;;18.20;47.80;;;;;;6170596;23;20152;-86
2023/03/15 02:58:54;;;;;;;1.20;1.00;;;18.20;48.50;;;;;;6195319;23;20177;-85
2023/03/15 03:01:21;;;;;;;1.27;0.95;;;18.20;47.90;;;;;;6195237;23;20215;-86
2023/03/15 03:03:47;;;;;;;3.83;1.30;;;18.10;47.80;;;;;;6195242;23;20140;-86
2023/03/15 03:06:14;;;;;;;1.70;1.02;;;18.10;47.80;;;;;;6195272;23;20137;-86
2023/03/15 03:08:39;;;;;;;2.90;1.20;;;18.10;48.00;;;;;;6170336;23;20487;-85
2023/03/15 03:11:05;;;;;;;1.48;1.00;;;18.10;47.80;;;;;;6195448;23;20129;-86
2023/03/15 03:13:31;;;;;;;1.88;0.80;;;18.10;47.90;;;;;;6195676;23;20129;-86
2023/03/15 03:15:58;;;;;;;1.48;1.30;;;18.10;47.90;;;;;;6170249;23;20527;-86
2023/03/15 03:18:25;;;;;;;1.70;0.90;;;18.10;47.80;;;;;;6170642;23;20141;-86
2023/03/15 03:20:50;;;;;;;1.13;0.85;;;18.10;48.20;;;;;;6195739;23;20130;-86
2023/03/15 03:23:17;;;;;;;3.78;1.10;;;18.10;48.00;;;;;;6220538;23;20168;-86
2023/03/15 03:25:44;;;;;;;1.33;1.10;;;18.10;48.20;;;;;;6195160;23;20158;-86
2023/03/15 03:28:10;;;;;;;1.75;1.17;;;18.10;48.20;;;;;;6171423;23;20160;-86
2023/03/15 03:30:35;;;;;;;1.67;1.20;;;18.10;48.00;;;;;;6170188;23;20138;-86
2023/03/15 03:33:03;;;;;;;1.38;0.93;;;18.10;48.20;;;;;;6170457;23;20142;-86
2023/03/15 03:35:31;;;;;;;2.30;1.00;;;18.10;48.10;;;;;;6170674;23;20142;-85
2023/03/15 03:37:56;;;;;;;1.65;0.90;;;18.10;48.20;;;;;;6195378;23;20176;-86
2023/03/15 03:40:22;;;;;;;2.33;1.17;;;18.10;48.20;;;;;;6190114;23;20182;-85
2023/03/15 03:42:47;;;;;;;1.23;0.90;;;18.10;48.10;;;;;;6215182;23;20172;-85
2023/03/15 03:45:13;;;;;;;1.88;0.98;;;18.00;48.00;;;;;;6190232;23;20141;-85
2023/03/15 03:47:39;;;;;;;3.03;0.98;;;18.10;48.10;;;;;;6190709;23;20134;-85
2023/03/15 03:50:05;;;;;;;1.38;1.10;;;18.10;48.20;;;;;;6190224;23;20157;-86
2023/03/15 03:52:32;;;;;;;2.30;1.02;;;18.10;48.30;;;;;;6189894;23;20154;-86
2023/03/15 03:54:58;;;;;;;1.33;1.08;;;18.00;48.00;;;;;;6190245;23;20143;-86
2023/03/15 03:57:24;;;;;;;3.10;0.98;;;18.00;48.20;;;;;;6215770;23;20454;-86
2023/03/15 03:59:51;;;;;;;1.27;0.82;;;18.00;48.20;;;;;;6165818;23;20146;-86
2023/03/15 04:02:17;;;;;;;1.85;1.00;;;18.10;48.20;;;;;;6216277;23;20162;-86
2023/03/15 04:04:43;;;;;;;1.55;0.88;;;18.00;48.30;;;;;;6190430;23;20229;-86
2023/03/15 04:07:09;;;;;;;1.67;0.88;;;18.00;48.10;;;;;;6164888;23;20146;-85
2023/03/15 04:09:36;;;;;;;1.25;0.95;;;18.00;48.10;;;;;;6189911;23;20189;-86
2023/03/15 04:12:04;;;;;;;1.23;0.95;;;18.10;48.00;;;;;;6166039;23;20516;-86
2023/03/15 04:14:29;;;;;;;2.15;1.05;;;18.10;48.00;;;;;;6216774;23;20138;-86
2023/03/15 04:16:56;;;;;;;1.65;0.93;;;18.10;48.20;;;;;;6190362;23;20131;-86
2023/03/15 04:19:22;;;;;;;2.88;1.02;;;18.00;48.20;;;;;;6190406;23;20142;-86
2023/03/15 04:21:47;;;;;;;1.65;1.05;;;18.00;48.00;;;;;;6189897;23;20187;-86
2023/03/15 04:24:13;;;;;;;1.85;1.00;;;18.10;48.00;;;;;;6190559;23;20133;-85
2023/03/15 04:26:40;;;;;;;1.83;0.80;;;18.00;48.00;;;;;;6165147;23;20169;-85
2023/03/15 04:29:07;;;;;;;1.92;1.20;;;18.10;48.00;;;;;;6190377;23;20602;-86
2023/03/15 04:31:36;;;;;;;0.73;0.73;;;18.10;48.00;;;;;;6190408;23;20138;-85
2023/03/15 04:34:02;;;;;;;0.80;0.73;;;18.00;48.20;;;;;;6191046;23;20302;-85
2023/03/15 04:36:28;;;;;;;3.17;1.20;;;18.00;48.20;;;;;;6190315;23;20138;-85
2023/03/15 04:39:05;;;;;;;1.45;1.08;;;18.10;48.20;;;;;;6192151;23;20494;-86
2023/03/15 04:41:33;;;;;;;1.00;0.88;;;18.00;48.40;;;;;;6177879;23;20299;-86
2023/03/15 04:43:59;;;;;;;1.35;0.90;;;18.00;48.20;;;;;;6198679;23;20126;-85
2023/03/15 04:46:25;;;;;;;1.42;1.00;;;18.00;48.30;;;;;;6173957;23;20456;-85
2023/03/15 04:48:51;;;;;;;1.13;1.00;;;18.00;48.30;;;;;;6200465;23;20126;-85
2023/03/15 04:51:17;;;;;;;2.45;1.05;;;17.90;48.20;;;;;;6199420;23;20209;-85
2023/03/15 04:53:42;;;;;;;2.92;1.05;;;17.90;48.20;;;;;;6224241;23;20138;-86
2023/03/15 04:56:09;;;;;;;5.53;1.17;;;17.90;48.20;;;;;;6174389;23;20181;-86
2023/03/15 04:58:35;;;;;;;1.90;1.20;;;17.90;48.30;;;;;;6200222;23;20213;-86
2023/03/15 05:01:00;;;;;;;1.60;1.05;;;17.90;48.20;;;;;;6224671;23;20576;-86
2023/03/15 05:03:26;;;;;;;1.95;0.98;;;18.00;48.40;;;;;;6223704;23;20168;-86
2023/03/15 05:05:52;;;;;;;1.25;0.80;;;17.90;48.40;;;;;;6173770;23;20172;-86
2023/03/15 05:08:18;;;;;;;1.73;0.85;;;17.90;48.30;;;;;;6199031;23;20141;-86
2023/03/15 05:10:43;;;;;;;2.03;1.10;;;17.90;48.40;;;;;;6173817;23;20153;-86
2023/03/15 05:13:10;;;;;;;0.85;0.82;;;17.90;48.50;;;;;;6198938;23;20130;-86
2023/03/15 05:15:36;;;;;;;0.88;0.70;;;17.80;48.40;;;;;;6200301;23;20225;-86
2023/03/15 05:18:03;;;;;;;1.20;1.10;;;17.90;48.40;;;;;;6174513;23;20161;-86
2023/03/15 05:20:28;;;;;;;1.92;1.00;;;17.90;48.30;;;;;;6199500;23;20142;-85
2023/03/15 05:22:54;;;;;;;3.08;1.00;;;17.90;48.10;;;;;;6174004;23;20196;-86
2023/03/15 05:25:20;;;;;;;1.95;1.00;;;17.90;48.30;;;;;;6174214;23;20515;-85
2023/03/15 05:27:47;;;;;;;1.10;1.00;;;17.90;48.30;;;;;;6200452;23;20133;-86
2023/03/15 05:30:15;;;;;;;1.70;1.00;;;17.90;48.30;;;;;;6199856;23;20153;-85
2023/03/15 05:32:43;;;;;;;0.60;0.60;;;17.90;49.00;;;;;;6176770;23;20228;-85
2023/03/15 05:35:09;;;;;;;1.23;1.02;;;17.90;48.30;;;;;;6199963;23;20126;-85
2023/03/15 05:37:35;;;;;;;0.85;0.85;;;17.90;48.50;;;;;;6198048;23;20188;-86
2023/03/15 05:40:00;;;;;;;1.02;0.80;;;17.90;48.30;;;;;;6198661;22;20145;-86
2023/03/15 05:42:28;;;;;;;2.75;1.02;;;17.90;48.20;;;;;;6198760;23;20177;-85
2023/03/15 05:44:54;;;;;;;0.93;0.77;;;17.90;48.30;;;;;;6199046;23;20185;-86
2023/03/15 05:47:19;;;;;;;3.75;0.90;;;17.90;48.40;;;;;;6173464;23;20144;-85
2023/03/15 05:49:45;;;;;;;1.63;0.77;;;17.80;48.50;;;;;;6174617;23;20157;-85
2023/03/15 05:52:12;;;;;;;1.10;0.98;;;17.80;48.30;;;;;;6200203;23;20440;-85
2023/03/15 05:54:37;;;;;;;1.95;0.98;;;17.90;48.40;;;;;;6174565;23;20492;-85
2023/03/15 05:57:05;;;;;;;1.65;0.88;;;17.90;49.00;;;;;;6199231;23;20130;-85
2023/03/15 05:59:33;;;;;;;0.88;0.88;;;17.90;48.30;;;;;;6173194;23;20149;-84
2023/03/15 06:01:59;;;;;;;1.23;1.02;;;17.80;48.20;;;;;;6198961;23;20212;-85
2023/03/15 06:04:24;;;;;;;1.30;0.90;;;17.90;48.30;;;;;;6173288;23;20144;-85
2023/03/15 06:06:51;;;;;;;1.17;1.00;;;17.90;48.30;;;;;;6198465;23;20133;-85
2023/03/15 06:09:16;;;;;;;1.95;1.13;;;17.90;48.30;;;;;;6224845;23;20157;-85
2023/03/15 06:11:42;;;;;;;2.50;0.98;;;17.90;48.30;;;;;;6199646;23;20446;-85
2023/03/15 06:14:10;;;;;;;1.85;0.85;;;17.90;48.30;;;;;;6173915;23;20153;-85
2023/03/15 06:16:35;;;;;;;2.15;0.98;;;17.90;48.30;;;;;;6174345;23;20141;-85
2023/03/15 06:19:02;;;;;;;1.23;0.82;;;17.90;48.30;;;;;;6198392;23;20144;-85
2023/03/15 06:21:28;;;;;;;1.50;0.93;;;17.90;48.30;;;;;;6198881;23;20251;-86
2023/03/15 06:23:54;;;;;;;1.85;1.15;;;17.90;48.00;;;;;;6173450;23;20177;-85
2023/03/15 06:26:21;;;;;;;1.40;0.90;;;17.90;48.10;;;;;;6199816;23;20176;-85
2023/03/15 06:28:47;;;;;;;1.33;0.90;;;17.90;48.20;;;;;;6175684;23;20141;-85
2023/03/15 06:31:16;;;;;;;1.35;1.00;;;17.90;48.00;;;;;;6176337;23;20511;-84
2023/03/15 06:33:43;;;;;;;1.35;0.90;;;17.90;47.90;;;;;;6222919;23;20129;-87
2023/03/15 06:36:09;;;;;;;2.05;0.95;;;18.00;47.90;;;;;;6170453;23;20149;-85
2023/03/15 06:38:35;;;;;;;0.93;0.93;;;18.00;47.90;;;;;;6172780;23;20203;-85
2023/03/15 06:41:00;;;;;;;1.10;1.00;;;18.00;47.90;;;;;;6166395;23;20190;-85
2023/03/15 06:43:26;;;;;;;1.23;0.82;;;18.00;47.80;;;;;;6169871;23;20170;-84
2023/03/15 06:45:54;;;;;;;2.00;0.90;;;18.00;47.70;;;;;;6194317;23;20166;-85
2023/03/15 06:48:20;;;;;;;4.50;1.13;;;18.00;47.70;;;;;;6169826;23;20169;-85
2023/03/15 06:50:49;;;;;;;1.55;1.17;;;18.00;47.80;;;;;;6170744;23;20153;-85
2023/03/15 06:53:15;;;;;;;1.02;0.95;;;18.00;47.80;;;;;;6169845;23;20134;-85
2023/03/15 06:55:40;;;;;;;1.00;0.90;;;18.10;47.80;;;;;;6218765;23;20164;-85
2023/03/15 06:58:07;;;;;;;0.93;0.77;;;18.00;47.80;;;;;;6170777;23;20535;-85
2023/03/15 07:00:33;;;;;;;1.08;0.82;;;18.00;47.90;;;;;;6168532;23;20150;-85
2023/03/15 07:02:58;;;;;;;1.35;0.88;;;18.00;47.90;;;;;;6194578;23;20174;-85
2023/03/15 07:05:25;;;;;;;2.15;0.93;;;18.00;48.00;;;;;;6196284;23;20184;-85
2023/03/15 07:07:54;;;;;;;1.90;1.20;;;18.00;48.00;;;;;;6176825;23;20134;-85
2023/03/15 07:10:20;;;;;;;1.33;0.90;;;18.00;47.80;;;;;;6223734;23;20165;-84
2023/03/15 07:12:46;;;;;;;0.98;0.80;;;18.00;47.80;;;;;;6175910;23;20149;-82
2023/03/15 07:15:14;;;;;;;2.08;1.00;;;18.10;47.60;;;;;;6202194;23;20130;-86
2023/03/15 07:17:41;;;;;;;1.10;1.00;;;18.10;47.80;;;;;;6205565;23;20146;-86
2023/03/15 07:20:08;;;;;;;1.00;0.90;;;18.10;47.80;;;;;;6204363;23;20134;-85
2023/03/15 07:22:36;;;;;;;1.55;0.90;;;18.10;47.90;;;;;;6206391;23;20484;-85
2023/03/15 07:25:08;;;;;;;1.13;0.70;;;18.10;47.80;;;;;;6183249;23;20221;-85
2023/03/15 07:27:41;;;;;;;1.60;0.88;;;18.10;47.70;;;;;;6182150;23;20138;-86
2023/03/15 07:30:08;;;;;;;1.20;0.80;;;18.20;47.60;;;;;;6171859;23;20135;-82
2023/03/15 07:32:34;;;;;;;1.63;0.70;;;18.10;47.50;;;;;;6167563;23;20146;-82
2023/03/15 07:34:59;;;;;;;1.50;0.90;;;18.20;47.30;;;;;;6216391;23;20146;-83
2023/03/15 07:37:27;;;;;;;3.15;0.93;;;18.20;47.40;;;;;;6193518;23;20460;-82
2023/03/15 07:39:53;;;;;;;0.88;0.88;;;18.20;47.30;;;;;;6216913;22;20169;-84
2023/03/15 07:42:19;;;;;;;0.85;0.80;;;18.30;46.80;;;;;;6196821;23;20173;-82
2023/03/15 07:44:44;;;;;;;1.38;0.90;;;18.40;46.70;;;;;;6172189;23;20568;-83
2023/03/15 07:47:10;;;;;;;0.70;0.70;;;18.40;46.70;;;;;;6196205;23;20460;-82
2023/03/15 07:49:36;;;;;;;1.40;0.80;;;18.40;46.70;;;;;;6171485;23;20261;-82
2023/03/15 07:52:02;;;;;;;1.10;0.70;;;18.50;46.50;;;;;;6197983;23;20159;-83
2023/03/15 07:54:30;;;;;;;1.27;0.70;;;18.50;46.20;;;;;;6220732;23;20492;-83
2023/03/15 07:56:56;;;;;;;1.02;0.70;;;18.50;46.10;;;;;;6222317;23;20410;-84
2023/03/15 07:59:33;;;;;;;;;;;;;;;;;;;;;
2023/03/15 08:02:43;;;;;;;1.27;0.90;;;18.60;46.10;;;;;;6173495;23;20255;-82
2023/03/15 08:05:09;;;;;;;0.80;0.80;;;18.50;46.30;;;;;;6097549;23;20210;-82
2023/03/15 08:07:35;;;;;;;3.28;0.80;;;18.60;46.20;;;;;;6133672;23;20151;-84
2023/03/15 08:10:04;;;;;;;1.77;0.75;;;18.60;46.40;;;;;;6137792;23;20198;-86
2023/03/15 08:12:35;;;;;;;1.02;0.85;;;18.70;46.30;;;;;;6139338;23;20167;-84
2023/03/15 08:15:02;;;;;;;1.85;0.80;;;18.70;46.10;;;;;;6136816;23;20206;-85
2023/03/15 08:17:28;;;;;;;1.30;0.70;;;18.80;46.20;;;;;;6136274;23;20166;-84
2023/03/15 08:19:57;;;;;;;2.35;0.80;;;18.80;46.40;;;;;;6136047;23;20153;-84
2023/03/15 08:25:44;;;;;;;1.50;0.65;;;18.70;46.20;;;;;;6158365;23;20142;-83
2023/03/15 08:28:11;;;;;;;4.20;0.75;;;18.80;46.20;;;;;;6133544;23;20151;-83
2023/03/15 08:30:36;;;;;;;1.40;0.63;;;18.90;46.10;;;;;;6109406;23;20155;-85
2023/03/15 08:33:02;;;;;;;2.25;0.73;;;18.90;45.80;;;;;;6108462;23;20629;-84
2023/03/15 08:35:28;;;;;;;0.77;0.73;;;18.90;46.00;;;;;;6134577;23;20171;-83
2023/03/15 08:38:20;;;;;;;2.13;0.82;;;19.00;45.30;;;;;;6133421;23;20151;-84
2023/03/15 08:40:48;;;;;;;2.58;0.65;;;19.00;45.60;;;;;;6134291;23;20206;-83
2023/03/15 08:43:13;;;;;;;2.05;0.70;;;19.00;45.00;;;;;;6202747;23;20212;-83
2023/03/15 08:45:39;;;;;;;3.63;0.80;;;19.00;45.70;;;;;;6173861;23;20149;-83
2023/03/15 08:48:05;;;;;;;2.95;0.60;;;19.00;45.00;;;;;;6174580;23;20172;-84
2023/03/15 08:50:42;;;;;;;0.65;0.65;;;19.10;45.10;;;;;;6199191;23;20156;-82
2023/03/15 08:53:09;;;;;;;0.82;0.80;;;19.20;44.80;;;;;;6200513;23;20149;-84
2023/03/15 08:55:35;;;;;;;0.60;0.60;;;19.10;45.30;;;;;;6200834;23;20518;-85
2023/03/15 08:58:01;;;;;;;2.53;0.80;;;19.10;44.90;;;;;;6173571;23;20177;-83
2023/03/15 09:00:27;;;;;;;0.63;0.50;;;19.00;45.00;;;;;;6173399;23;20157;-84
2023/03/15 09:03:00;;;;;;;0.70;0.70;;;19.00;45.30;;;;;;6226285;23;20480;-82
2023/03/15 09:05:26;;;;;;;0.82;0.55;;;19.00;45.00;;;;;;6162754;23;20195;-83
2023/03/15 09:07:52;;;;;;;2.05;0.50;;;19.00;45.20;;;;;;6187972;23;20525;-84
2023/03/15 09:10:18;;;;;;;1.98;0.60;;;19.00;45.80;;;;;;6163284;23;20626;-83
2023/03/15 09:12:47;;;;;;;1.48;0.70;;;19.10;45.40;;;;;;6138760;23;20158;-83
2023/03/15 09:15:13;;;;;;;2.20;0.80;;;19.00;45.20;;;;;;6137474;23;20496;-84
2023/03/15 09:17:39;;;;;;;3.22;0.70;;;19.00;45.20;;;;;;6137440;23;20245;-84
2023/03/15 09:20:13;;;;;;;1.67;0.60;;;19.00;44.80;;;;;;6162370;23;20139;-83
2023/03/15 09:22:40;;;;;;;2.30;0.80;;;19.10;44.60;;;;;;6164889;23;20186;-85
2023/03/15 09:25:08;;;;;;;2.78;0.68;;;19.20;44.80;;;;;;6163512;23;20194;-84
2023/03/15 09:27:38;;;;;;;1.92;0.70;;;19.20;44.80;;;;;;6138683;23;20149;-84
2023/03/15 09:30:04;;;;;;;1.77;0.60;;;19.20;44.80;;;;;;6163435;23;20153;-84
2023/03/15 09:32:34;;;;;;;1.10;0.70;;;19.10;45.00;;;;;;6138429;23;20185;-83
2023/03/15 09:35:12;;;;;;;;;;;;;;;;;;;;;
2023/03/15 09:37:54;;;;;;;1.17;0.57;;;19.10;45.70;;;;;;6137251;23;20237;-84
2023/03/15 09:40:29;;;;;;;1.85;0.68;;;19.00;45.70;;;;;;6133064;23;20245;-84
2023/03/15 09:43:30;;;;;;;1.13;0.70;;;19.00;45.70;;;;;;6101811;23;20629;-85
2023/03/15 09:46:22;;;;;;;1.52;0.68;;;19.10;45.60;;;;;;6140780;23;20502;-84
2023/03/15 09:48:54;;;;;;;1.35;0.70;;;19.10;45.30;;;;;;6161348;23;20179;-83
2023/03/15 09:51:34;;;;;;;0.75;0.50;;;19.10;44.70;;;;;;6162543;23;20172;-84
2023/03/15 09:54:22;;;;;;;3.22;0.60;;;19.20;44.20;;;;;;6138293;23;20150;-87
2023/03/15 09:56:55;;;;;;;0.75;0.50;;;19.20;45.30;;;;;;6185468;23;20154;-86
2023/03/15 09:59:21;;;;;;;0.85;0.50;;;19.00;45.00;;;;;;6134921;23;20151;-85
2023/03/15 10:01:48;;;;;;;0.70;0.50;;;19.10;45.00;;;;;;6160250;23;20174;-84
2023/03/15 10:05:10;;;;;;;1.42;0.60;;;19.10;45.90;;;;;;6110597;23;20179;-86
2023/03/15 10:07:36;;;;;;;1.45;0.60;;;19.00;45.30;;;;;;6184403;23;20165;-84
2023/03/15 10:10:05;;;;;;;0.95;0.63;;;19.10;44.90;;;;;;6134050;23;20233;-84
2023/03/15 10:12:40;;;;;;;2.45;0.85;;;19.00;45.20;;;;;;6170350;23;20160;-85
2023/03/15 10:15:25;;;;;;;1.35;0.50;;;18.90;45.20;;;;;;6196013;23;20157;-85
2023/03/15 10:18:21;;;;;;;1.77;0.60;;;18.90;44.80;;;;;;6196370;23;20172;-85
2023/03/15 10:20:51;;;;;;;1.17;0.60;;;18.90;45.10;;;;;;6200080;23;20181;-85
2023/03/15 10:23:19;;;;;;;1.35;0.60;;;18.90;45.00;;;;;;6171672;23;20239;-86
2023/03/15 10:25:51;;;;;;;2.35;0.70;;;18.90;44.90;;;;;;6195917;23;20153;-86
2023/03/15 10:28:31;;;;;;;3.38;0.60;;;18.90;44.90;;;;;;6129918;23;20170;-87
2023/03/15 10:30:59;;;;;;;1.40;0.60;;;18.90;45.00;;;;;;6110733;23;20144;-85
2023/03/15 10:33:30;;;;;;;1.10;0.60;;;18.90;45.00;;;;;;6045612;23;20236;-85
2023/03/15 10:35:57;;;;;;;2.15;0.52;;;19.00;44.70;;;;;;6044876;23;20640;-86
2023/03/15 10:38:25;;;;;;;1.27;0.70;;;19.00;44.50;;;;;;6043390;23;20164;-87
2023/03/15 10:40:55;;;;;;;1.60;0.60;;;18.90;44.40;;;;;;6046222;23;20197;-87
2023/03/15 10:43:24;;;;;;;1.85;0.60;;;18.90;44.10;;;;;;6020900;23;20217;-86
2023/03/15 10:45:59;;;;;;;1.70;0.88;;;18.90;44.20;;;;;;6020330;23;20150;-86
2023/03/15 10:48:25;;;;;;;2.78;0.70;;;18.90;44.20;;;;;;6045443;23;20187;-86
2023/03/15 10:50:51;;;;;;;1.23;0.43;;;18.90;44.10;;;;;;6019148;23;20158;-84
2023/03/15 10:53:20;;;;;;;0.98;0.68;;;18.90;44.30;;;;;;6021137;23;20646;-85
2023/03/15 10:55:46;;;;;;;0.40;0.38;;;18.90;44.30;;;;;;6021962;23;20201;-85
2023/03/15 10:58:26;;;;;;;1.13;0.70;;;18.90;43.90;;;;;;6025794;23;20154;-84
2023/03/15 11:01:01;;;;;;;0.93;0.55;;;19.00;43.90;;;;;;6133111;23;20263;-84
2023/03/15 11:03:30;;;;;;;4.53;0.50;;;19.00;43.60;;;;;;6108343;23;20245;-84
2023/03/15 11:05:56;;;;;;;2.03;0.50;;;19.00;43.40;;;;;;6130060;23;20135;-83
2023/03/15 11:08:36;;;;;;;1.45;0.40;;;19.00;43.20;;;;;;6105727;23;20581;-84
2023/03/15 11:11:02;;;;;;;0.93;0.57;;;19.10;42.90;;;;;;6131497;23;20203;-84
2023/03/15 11:13:29;;;;;;;1.55;0.60;;;19.10;42.80;;;;;;6130316;23;20159;-84
2023/03/15 11:16:20;;;;;;;0.70;0.50;;;19.10;42.90;;;;;;6106758;23;20155;-83
2023/03/15 11:18:54;;;;;;;1.90;0.70;;;19.10;42.80;;;;;;6114801;23;20147;-85
2023/03/15 11:21:22;;;;;;;0.50;0.50;;;19.20;43.00;;;;;;6133356;23;20158;-84
2023/03/15 11:23:50;;;;;;;0.93;0.55;;;19.20;42.80;;;;;;6108317;23;20159;-85
2023/03/15 11:26:18;;;;;;;0.60;0.43;;;19.10;42.60;;;;;;6130730;23;20175;-85
2023/03/15 11:28:47;;;;;;;1.02;0.60;;;19.10;42.50;;;;;;6131549;23;20472;-84
2023/03/15 11:31:13;;;;;;;1.95;0.70;;;19.10;42.60;;;;;;6188659;23;20581;-85
2023/03/15 11:33:52;;;;;;;1.95;0.55;;;19.10;42.50;;;;;;6165882;23;20204;-84
2023/03/15 11:36:23;;;;;;;3.13;0.50;;;19.10;42.30;;;;;;6191655;23;20530;-85
2023/03/15 11:38:52;;;;;;;2.85;0.80;;;19.10;42.30;;;;;;6169308;23;20150;-86
2023/03/15 11:41:40;;;;;;;1.92;0.60;;;19.00;42.10;;;;;;6156852;23;20197;-85
2023/03/15 11:44:32;;;;;;;4.45;0.68;;;19.10;42.20;;;;;;6194743;23;20130;-86
2023/03/15 11:47:02;;;;;;;4.30;0.98;;;19.10;42.20;;;;;;6215815;23;20138;-84
2023/03/15 11:49:32;;;;;;;5.18;1.05;;;19.00;42.30;;;;;;6192875;23;20153;-85
2023/03/15 11:51:58;;;;;;;8.38;0.80;;;19.00;42.20;;;;;;6190495;23;20157;-85
2023/03/15 11:54:25;;;;;;;2.63;0.88;;;19.00;42.20;;;;;;6215335;23;20461;-84
2023/03/15 11:56:55;;;;;;;6.35;0.80;;;19.10;42.10;;;;;;6190181;23;20174;-84
2023/03/15 11:59:31;;;;;;;2.83;0.73;;;19.00;41.80;;;;;;6167812;23;20284;-84
2023/03/15 12:02:00;;;;;;;1.33;0.45;;;19.00;41.40;;;;;;6170751;23;20530;-86
2023/03/15 12:04:39;;;;;;;1.67;0.57;;;19.00;41.30;;;;;;6190292;23;20131;-85
2023/03/15 12:07:43;;;;;;;2.03;0.88;;;19.10;41.30;;;;;;6199738;23;20228;-89
2023/03/15 12:10:32;;;;;;;4.22;0.70;;;19.10;41.30;;;;;;6205945;23;20504;-88
2023/03/15 12:13:06;;;;;;;0.80;0.60;;;19.00;41.30;;;;;;6194421;23;20162;-87
2023/03/15 12:15:41;;;;;;;3.00;0.70;;;19.00;41.10;;;;;;6118232;23;20158;-88
2023/03/15 12:18:18;;;;;;;1.92;0.70;;;18.90;40.90;;;;;;6118959;23;20178;-88
2023/03/15 12:21:04;;;;;;;2.45;0.60;;;19.10;40.90;;;;;;6076195;23;20225;-86
2023/03/15 12:23:36;;;;;;;1.75;0.50;;;19.00;40.70;;;;;;6166503;23;20553;-87
2023/03/15 12:26:09;;;;;;;1.02;0.57;;;19.00;40.70;;;;;;6113944;23;20158;-86
2023/03/15 12:28:37;;;;;;;0.65;0.60;;;19.10;40.80;;;;;;6163711;23;20226;-86
2023/03/15 12:31:05;;;;;;;2.35;0.60;;;19.10;40.50;;;;;;6144637;23;20150;-85
2023/03/15 12:33:42;;;;;;;1.15;0.43;;;19.10;40.30;;;;;;6113169;23;20162;-87
2023/03/15 12:36:31;;;;;;;0.73;0.52;;;19.10;40.40;;;;;;6117051;23;20143;-87
2023/03/15 12:39:19;;;;;;;0.70;0.50;;;19.10;40.20;;;;;;6073192;23;20184;-88
2023/03/15 12:41:57;;;;;;;1.10;0.47;;;19.00;40.00;;;;;;6054420;23;20204;-87
2023/03/15 12:44:39;;;;;;;0.68;0.50;;;19.10;39.90;;;;;;6016436;23;20173;-85
2023/03/15 12:47:07;;;;;;;2.92;0.68;;;19.00;39.60;;;;;;6047380;23;20137;-87
2023/03/15 12:49:41;;;;;;;1.10;0.50;;;19.10;39.70;;;;;;6049087;23;20236;-87
2023/03/15 12:52:28;;;;;;;1.42;0.70;;;19.10;39.50;;;;;;6051427;23;20154;-86
2023/03/15 12:55:00;;;;;;;2.10;0.70;;;19.10;39.20;;;;;;6041108;23;20165;-86
2023/03/15 12:57:27;;;;;;;3.30;0.60;;;19.10;39.30;;;;;;6040347;23;20166;-85
2023/03/15 12:59:59;;;;;;;3.22;0.57;;;19.10;39.20;;;;;;6039357;23;20559;-86
2023/03/15 13:02:30;;;;;;;0.95;0.57;;;19.10;39.20;;;;;;6041636;23;20188;-87